• Join FlightAware (Why Join?)
  • Login
  • US Flag 
12:41PM EDT


 

Airport Tracker/Info


-or-


 

Live Flight TrackerFlight Track Log ✈ DAL3794 ✈ 09-May-2013 ✈ KDTW - KMHT

Flight Track Log - Related Links

Times and Time Zones

All times are in EDT time to prevent confusion due to time zone crossing. See the DAL3794 flight status page for this flight to view local times or setup timezone preferences in your user account.

Time Position Orientation Groundspeed Altitude Reporting Facility
EDT Latitude Longitude Course Direction KTS MPH feet Rate Location/Type
04:25PM 42.1953 -83.3581 56° Northeast 169 194 1,500  Level Cleveland Center
04:25PM 42.1536 -83.3533 175° South 202 232 3,300 2,160 Climbing Cleveland Center
04:27PM 42.0917 -83.3367 169° South 252 290 5,700 2,160 Climbing Cleveland Center
04:28PM 42.3092 -82.7574 78° East  Level FlightAware Approximate
04:28PM 42.0878 -83.2328 93° East 295 339 8,000  Level Cleveland Center
04:29PM 42.3324 -82.6062 78° East  Level FlightAware Approximate
04:29PM 42.0975 -83.0794 85° East 318 366 10,000  Level Cleveland Center
04:30PM 42.3620 -82.4594 56° Northeast  Level FlightAware Approximate
04:30PM 42.1086 -82.9511 83° East 336 387 12,000  Level Cleveland Center
04:31PM 42.1608 -82.8381 58° Northeast 341 392 13,700 1,500 Climbing Cleveland Center
04:32PM 42.2083 -82.7500 54° Northeast 341 392 15,000 1,500 Climbing Cleveland Center
04:33PM 42.2817 -82.6122 54° Northeast 364 419 16,700 1,500 Climbing Cleveland Center
04:34PM 42.3464 -82.4936 54° Northeast 378 435 18,100 1,200 Climbing Cleveland Center
04:35PM 42.3633 -82.3478 81° East 377 434 19,100 960 Climbing Cleveland Center
04:36PM 42.3550 -82.1958 94° East 384 442 20,100 960 Climbing Cleveland Center
04:37PM 42.3489 -82.0383 93° East 400 460 21,100 960 Climbing Cleveland Center
04:38PM 42.3425 -81.8839 93° East 415 478 22,100 1,020 Climbing Cleveland Center
04:39PM 42.3378 -81.7236 92° East 425 489 23,200 780 Climbing Cleveland Center
04:40PM 42.3289 -81.5633 94° East 425 489 23,700 480 Climbing Cleveland Center
04:41PM 42.3217 -81.4003 93° East 425 489 24,200 420 Climbing Cleveland Center
04:42PM 42.3144 -81.2486 94° East 436 502 24,600 420 Climbing Cleveland Center
04:43PM 42.3050 -81.0800 94° East 447 514 25,100 480 Climbing Cleveland Center
04:44PM 42.2972 -80.9061 93° East 453 521 25,600 540 Climbing Cleveland Center
04:45PM 42.2872 -80.7347 94° East 459 528 26,200 540 Climbing Cleveland Center
04:46PM 42.2767 -80.5608 95° East 468 539 26,700 480 Climbing Cleveland Center
04:47PM 42.2661 -80.3728 94° East 454 522 27,200 480 Climbing Cleveland Center
04:48PM 42.2575 -80.1989 94° East 461 531 27,700 480 Climbing Cleveland Center
04:49PM 42.2483 -80.0278 94° East 461 531 28,200 480 Climbing Cleveland Center
04:50PM 42.2369 -79.8483 95° East 461 531 28,700 360 Climbing Cleveland Center
04:51PM 42.2400 -79.6744 89° East 454 522 29,000 120 Climbing Cleveland Center
04:52PM 42.2572 -79.5031 82° East 460 529 29,000  Level Cleveland Center
04:53PM 42.2722 -79.3431 83° East 465 535 29,000  Level Cleveland Center
04:54PM 42.2908 -79.1433 83° East 480 552 29,000  Level Cleveland Center
04:55PM 42.3072 -78.9689 83° East 485 558 29,000  Level Cleveland Center
04:56PM 42.3217 -78.8139 83° East 478 550 29,000  Level Cleveland Center
04:57PM 42.3375 -78.6308 83° East 473 544 29,000  Level Cleveland Center
04:58PM 42.3531 -78.4506 83° East 478 550 29,000  Level Cleveland Center
04:59PM 42.3683 -78.2758 83° East 478 550 29,000  Level Cleveland Center
05:00PM 42.3833 -78.0981 83° East 478 550 29,000  Level Cleveland Center
05:01PM 42.4025 -77.9203 82° East 478 550 29,000  Level Cleveland Center
05:02PM 42.4467 -77.7608 69° East 460 529 29,000  Level Cleveland Center
05:04PM 42.5489 -77.3872 70° East 467 537 29,000  Level Boston Center
05:05PM 42.5606 -77.2133 85° East 461 531 29,000  Level Boston Center
05:06PM 42.5742 -77.0394 84° East 461 531 29,000  Level Boston Center
05:07PM 42.5853 -76.8625 85° East 461 531 29,000  Level Boston Center
05:08PM 42.5961 -76.6883 85° East 461 531 29,000  Level Boston Center
05:09PM 42.6089 -76.5114 84° East 461 531 29,000  Level Boston Center
05:10PM 42.6189 -76.3397 85° East 461 531 29,000  Level Boston Center
05:11PM 42.6297 -76.1456 86° East 461 531 29,000 -60 Level Boston Center
05:12PM 42.6394 -75.9711 86° East 461 531 28,900  Descending Boston Center
05:13PM 42.6508 -75.7997 85° East 461 531 29,000  Climbing Boston Center
05:14PM 42.6622 -75.6222 85° East 461 531 29,000  Level Boston Center
05:15PM 42.6681 -75.4842 87° East 461 531 29,000  Level Boston Center
05:16PM 42.6775 -75.2783 86° East 456 525 29,000  Level Boston Center
05:17PM 42.6858 -75.1064 86° East 456 525 29,000  Level Boston Center
05:18PM 42.6961 -74.9375 85° East 456 525 29,000  Level Boston Center
05:19PM 42.7039 -74.7683 86° East 451 519 29,000  Level Boston Center
05:20PM 42.7258 -74.5994 80° East 451 519 29,000 -120 Level Boston Center
05:21PM 42.7619 -74.4508 72° East 451 519 28,800 -600 Descending Boston Center
05:22PM 42.8042 -74.2881 70° East 451 519 27,800 -1,020 Descending Boston Center
05:23PM 42.8361 -74.1247 75° East 451 519 26,800 -1,140 Descending Boston Center
05:24PM 42.8425 -73.9550 87° East 446 513 25,600 -1,200 Descending Boston Center
05:25PM 42.8342 -73.7906 94° East 441 507 24,400 -900 Descending Boston Center
05:26PM 42.8358 -73.6603 89° East 436 502 23,800 -1,200 Descending Boston Center
05:27PM 42.8314 -73.4650 92° East 431 496 22,100 -1,920 Descending Boston Center
05:28PM 42.8264 -73.3092 92° East 424 488 20,000 -1,560 Descending Boston Center
05:29PM 42.8211 -73.1561 93° East 413 475 19,000 -540 Descending Boston Center
05:30PM 42.8158 -73.0089 93° East 397 457 19,000  Level Boston Center
05:31PM 42.8206 -72.8647 87° East 385 443 19,000  Level Boston Center
05:32PM 42.8356 -72.7175 82° East 385 443 19,000 -660 Level Boston Center
05:33PM 42.8233 -72.5731 97° East 385 443 17,700 -1,800 Descending Boston Center
05:34PM 42.8214 -72.4317 91° East 379 436 15,400 -2,340 Descending Boston Center
05:35PM 42.8381 -72.2958 80° East 373 429 13,100 -2,280 Descending Boston Center
05:36PM 42.8522 -72.1511 82° East 353 406 10,900 -1,680 Descending Boston Center
05:37PM 42.8625 -72.0519 82° East 316 364 9,800 -1,620 Descending Boston Center
05:38PM 42.8764 -71.9331 81° East 285 328 7,700 -1,920 Descending Boston Center
05:39PM 42.8719 -71.8422 94° East 272 313 6,000 -2,100 Descending Boston Center
05:40PM 42.8400 -71.7408 113° Southeast 260 299 3,600 -1,740 Descending Boston Center
05:41PM 42.8167 -71.6675 113° Southeast 249 287 2,600 -720 Descending Boston Center
05:42PM 42.8203 -71.5853 87° East 204 235 2,200 -420 Descending Boston Center